sensor_id;sensor_type;location;lat;lon;timestamp;temperature;humidity
3727;DHT22;1879;45.876;12.300;2022-07-29T00:00:10;27.70;90.60
3727;DHT22;1879;45.876;12.300;2022-07-29T00:02:37;27.70;90.40
3727;DHT22;1879;45.876;12.300;2022-07-29T00:05:05;27.80;90.50
3727;DHT22;1879;45.876;12.300;2022-07-29T00:07:32;27.80;90.40
3727;DHT22;1879;45.876;12.300;2022-07-29T00:09:59;27.80;90.30
3727;DHT22;1879;45.876;12.300;2022-07-29T00:12:26;27.80;90.40
3727;DHT22;1879;45.876;12.300;2022-07-29T00:14:55;27.90;90.50
3727;DHT22;1879;45.876;12.300;2022-07-29T00:17:22;27.90;90.30
3727;DHT22;1879;45.876;12.300;2022-07-29T00:19:50;28.00;90.20
3727;DHT22;1879;45.876;12.300;2022-07-29T00:22:17;28.00;90.30
3727;DHT22;1879;45.876;12.300;2022-07-29T00:24:44;27.90;90.40
3727;DHT22;1879;45.876;12.300;2022-07-29T00:27:11;27.90;90.50
3727;DHT22;1879;45.876;12.300;2022-07-29T00:29:38;27.90;90.50
3727;DHT22;1879;45.876;12.300;2022-07-29T00:32:07;27.80;91.00
3727;DHT22;1879;45.876;12.300;2022-07-29T00:34:34;27.60;91.60
3727;DHT22;1879;45.876;12.300;2022-07-29T00:37:18;27.20;92.30
3727;DHT22;1879;45.876;12.300;2022-07-29T00:39:45;26.60;93.70
3727;DHT22;1879;45.876;12.300;2022-07-29T00:42:12;26.50;93.80
3727;DHT22;1879;45.876;12.300;2022-07-29T00:44:40;26.60;93.80
3727;DHT22;1879;45.876;12.300;2022-07-29T00:47:09;26.60;93.80
3727;DHT22;1879;45.876;12.300;2022-07-29T00:49:38;26.60;93.20
3727;DHT22;1879;45.876;12.300;2022-07-29T00:52:06;26.70;93.00
3727;DHT22;1879;45.876;12.300;2022-07-29T00:54:34;26.80;92.60
3727;DHT22;1879;45.876;12.300;2022-07-29T00:57:02;26.90;92.40
3727;DHT22;1879;45.876;12.300;2022-07-29T00:59:29;26.90;92.40
3727;DHT22;1879;45.876;12.300;2022-07-29T01:01:56;27.00;92.40
3727;DHT22;1879;45.876;12.300;2022-07-29T01:04:24;27.00;92.30
3727;DHT22;1879;45.876;12.300;2022-07-29T01:06:54;27.00;92.40
3727;DHT22;1879;45.876;12.300;2022-07-29T01:09:21;26.90;92.40
3727;DHT22;1879;45.876;12.300;2022-07-29T01:11:49;27.00;92.30
3727;DHT22;1879;45.876;12.300;2022-07-29T01:14:16;27.00;92.10
3727;DHT22;1879;45.876;12.300;2022-07-29T01:16:48;27.00;92.20
3727;DHT22;1879;45.876;12.300;2022-07-29T01:19:29;27.00;92.40
3727;DHT22;1879;45.876;12.300;2022-07-29T01:22:13;27.00;92.70
3727;DHT22;1879;45.876;12.300;2022-07-29T01:25:03;27.00;93.00
3727;DHT22;1879;45.876;12.300;2022-07-29T01:28:00;27.00;93.30
3727;DHT22;1879;45.876;12.300;2022-07-29T01:30:30;27.10;93.60
3727;DHT22;1879;45.876;12.300;2022-07-29T01:33:03;27.00;93.60
3727;DHT22;1879;45.876;12.300;2022-07-29T01:35:35;27.00;94.00
3727;DHT22;1879;45.876;12.300;2022-07-29T01:38:08;27.00;93.80
3727;DHT22;1879;45.876;12.300;2022-07-29T01:40:42;27.10;93.20
3727;DHT22;1879;45.876;12.300;2022-07-29T01:43:15;27.10;93.10
3727;DHT22;1879;45.876;12.300;2022-07-29T01:45:48;27.00;93.20
3727;DHT22;1879;45.876;12.300;2022-07-29T01:48:21;27.00;93.10
3727;DHT22;1879;45.876;12.300;2022-07-29T01:50:53;27.00;93.30
3727;DHT22;1879;45.876;12.300;2022-07-29T01:53:25;27.10;93.20
3727;DHT22;1879;45.876;12.300;2022-07-29T01:55:53;27.10;93.00
3727;DHT22;1879;45.876;12.300;2022-07-29T01:58:22;27.20;92.70
3727;DHT22;1879;45.876;12.300;2022-07-29T02:00:52;27.20;92.50
3727;DHT22;1879;45.876;12.300;2022-07-29T02:03:21;27.30;92.60
3727;DHT22;1879;45.876;12.300;2022-07-29T02:05:49;27.30;92.40
3727;DHT22;1879;45.876;12.300;2022-07-29T02:08:18;27.30;92.30
3727;DHT22;1879;45.876;12.300;2022-07-29T02:10:47;27.20;92.30
3727;DHT22;1879;45.876;12.300;2022-07-29T02:13:16;27.20;92.40
3727;DHT22;1879;45.876;12.300;2022-07-29T02:15:44;27.20;92.30
3727;DHT22;1879;45.876;12.300;2022-07-29T02:18:17;27.20;92.30
3727;DHT22;1879;45.876;12.300;2022-07-29T02:20:46;27.10;92.30
3727;DHT22;1879;45.876;12.300;2022-07-29T02:23:18;27.00;92.40
3727;DHT22;1879;45.876;12.300;2022-07-29T02:25:48;27.00;92.60
3727;DHT22;1879;45.876;12.300;2022-07-29T02:28:16;26.90;92.70
3727;DHT22;1879;45.876;12.300;2022-07-29T02:30:44;26.80;92.70
3727;DHT22;1879;45.876;12.300;2022-07-29T02:33:15;26.80;92.90
3727;DHT22;1879;45.876;12.300;2022-07-29T02:35:45;26.70;92.80
3727;DHT22;1879;45.876;12.300;2022-07-29T02:38:14;26.70;92.90
3727;DHT22;1879;45.876;12.300;2022-07-29T02:41:02;26.70;92.90
3727;DHT22;1879;45.876;12.300;2022-07-29T02:43:30;26.60;93.20
3727;DHT22;1879;45.876;12.300;2022-07-29T02:45:59;26.50;93.30
3727;DHT22;1879;45.876;12.300;2022-07-29T02:48:34;26.50;93.60
3727;DHT22;1879;45.876;12.300;2022-07-29T02:51:08;26.50;93.60
3727;DHT22;1879;45.876;12.300;2022-07-29T02:53:39;26.40;93.70
3727;DHT22;1879;45.876;12.300;2022-07-29T02:56:11;26.40;93.70
3727;DHT22;1879;45.876;12.300;2022-07-29T02:58:42;26.40;94.10
3727;DHT22;1879;45.876;12.300;2022-07-29T03:01:15;26.40;93.90
3727;DHT22;1879;45.876;12.300;2022-07-29T03:03:45;26.30;94.40
3727;DHT22;1879;45.876;12.300;2022-07-29T03:06:13;26.20;94.50
3727;DHT22;1879;45.876;12.300;2022-07-29T03:08:42;26.30;94.60
3727;DHT22;1879;45.876;12.300;2022-07-29T03:11:10;26.30;94.30
3727;DHT22;1879;45.876;12.300;2022-07-29T03:13:38;26.40;94.20
3727;DHT22;1879;45.876;12.300;2022-07-29T03:16:06;26.30;94.70
3727;DHT22;1879;45.876;12.300;2022-07-29T03:18:34;26.10;95.10
3727;DHT22;1879;45.876;12.300;2022-07-29T03:21:03;25.90;95.50
3727;DHT22;1879;45.876;12.300;2022-07-29T03:23:30;25.90;95.50
3727;DHT22;1879;45.876;12.300;2022-07-29T03:25:57;25.90;95.30
3727;DHT22;1879;45.876;12.300;2022-07-29T03:28:25;26.00;95.50
3727;DHT22;1879;45.876;12.300;2022-07-29T03:30:53;26.00;95.40
3727;DHT22;1879;45.876;12.300;2022-07-29T03:33:20;26.10;95.20
3727;DHT22;1879;45.876;12.300;2022-07-29T03:35:47;26.10;95.30
3727;DHT22;1879;45.876;12.300;2022-07-29T03:38:16;26.00;95.30
3727;DHT22;1879;45.876;12.300;2022-07-29T03:40:48;26.10;95.50
3727;DHT22;1879;45.876;12.300;2022-07-29T03:43:17;26.10;95.50
3727;DHT22;1879;45.876;12.300;2022-07-29T03:45:47;26.10;95.40
3727;DHT22;1879;45.876;12.300;2022-07-29T03:48:19;26.00;95.40
3727;DHT22;1879;45.876;12.300;2022-07-29T03:50:47;25.90;95.60
3727;DHT22;1879;45.876;12.300;2022-07-29T03:53:16;25.90;95.70
3727;DHT22;1879;45.876;12.300;2022-07-29T03:55:45;25.90;95.90
3727;DHT22;1879;45.876;12.300;2022-07-29T03:58:13;25.80;96.00
3727;DHT22;1879;45.876;12.300;2022-07-29T04:00:42;25.80;95.80
3727;DHT22;1879;45.876;12.300;2022-07-29T04:03:09;25.70;96.30
3727;DHT22;1879;45.876;12.300;2022-07-29T04:05:37;25.60;96.80
3727;DHT22;1879;45.876;12.300;2022-07-29T04:08:04;25.50;97.10
3727;DHT22;1879;45.876;12.300;2022-07-29T04:10:33;25.50;96.90
3727;DHT22;1879;45.876;12.300;2022-07-29T04:13:00;25.60;96.90
3727;DHT22;1879;45.876;12.300;2022-07-29T04:15:27;25.60;97.00
3727;DHT22;1879;45.876;12.300;2022-07-29T04:17:54;25.50;97.30
3727;DHT22;1879;45.876;12.300;2022-07-29T04:20:21;25.40;97.30
3727;DHT22;1879;45.876;12.300;2022-07-29T04:22:48;25.50;97.20
3727;DHT22;1879;45.876;12.300;2022-07-29T04:25:15;25.50;96.40
3727;DHT22;1879;45.876;12.300;2022-07-29T04:27:44;25.40;96.70
3727;DHT22;1879;45.876;12.300;2022-07-29T04:30:25;25.40;96.90
3727;DHT22;1879;45.876;12.300;2022-07-29T04:32:52;25.40;97.00
3727;DHT22;1879;45.876;12.300;2022-07-29T04:35:19;25.30;96.70
3727;DHT22;1879;45.876;12.300;2022-07-29T04:37:46;25.40;96.60
3727;DHT22;1879;45.876;12.300;2022-07-29T04:40:14;25.40;96.50
3727;DHT22;1879;45.876;12.300;2022-07-29T04:42:41;25.30;96.40
3727;DHT22;1879;45.876;12.300;2022-07-29T04:45:09;25.30;96.40
3727;DHT22;1879;45.876;12.300;2022-07-29T04:47:36;25.20;96.50
3727;DHT22;1879;45.876;12.300;2022-07-29T04:50:04;25.40;96.60
3727;DHT22;1879;45.876;12.300;2022-07-29T04:52:32;25.40;96.60
3727;DHT22;1879;45.876;12.300;2022-07-29T04:55:00;25.50;96.40
3727;DHT22;1879;45.876;12.300;2022-07-29T04:57:27;25.60;95.80
3727;DHT22;1879;45.876;12.300;2022-07-29T04:59:54;25.70;95.70
3727;DHT22;1879;45.876;12.300;2022-07-29T05:02:22;25.80;95.30
3727;DHT22;1879;45.876;12.300;2022-07-29T05:04:49;25.90;95.10
3727;DHT22;1879;45.876;12.300;2022-07-29T05:07:16;26.00;94.90
3727;DHT22;1879;45.876;12.300;2022-07-29T05:09:43;26.10;94.80
3727;DHT22;1879;45.876;12.300;2022-07-29T05:12:10;26.10;94.50
3727;DHT22;1879;45.876;12.300;2022-07-29T05:14:37;26.10;94.40
3727;DHT22;1879;45.876;12.300;2022-07-29T05:17:04;26.10;94.20
3727;DHT22;1879;45.876;12.300;2022-07-29T05:19:32;26.10;94.20
3727;DHT22;1879;45.876;12.300;2022-07-29T05:21:59;26.20;94.10
3727;DHT22;1879;45.876;12.300;2022-07-29T05:24:26;26.20;93.90
3727;DHT22;1879;45.876;12.300;2022-07-29T05:26:53;26.20;93.90
3727;DHT22;1879;45.876;12.300;2022-07-29T05:29:20;26.30;93.80
3727;DHT22;1879;45.876;12.300;2022-07-29T05:31:47;26.40;93.60
3727;DHT22;1879;45.876;12.300;2022-07-29T05:34:14;26.50;93.50
3727;DHT22;1879;45.876;12.300;2022-07-29T05:36:43;26.50;93.30
3727;DHT22;1879;45.876;12.300;2022-07-29T05:39:10;26.60;93.10
3727;DHT22;1879;45.876;12.300;2022-07-29T05:41:38;26.60;92.80
3727;DHT22;1879;45.876;12.300;2022-07-29T05:44:05;26.70;92.80
3727;DHT22;1879;45.876;12.300;2022-07-29T05:46:32;26.70;92.40
3727;DHT22;1879;45.876;12.300;2022-07-29T05:48:59;26.80;92.70
3727;DHT22;1879;45.876;12.300;2022-07-29T05:51:28;26.90;92.80
3727;DHT22;1879;45.876;12.300;2022-07-29T05:53:57;26.90;92.40
3727;DHT22;1879;45.876;12.300;2022-07-29T05:56:24;26.90;92.30
3727;DHT22;1879;45.876;12.300;2022-07-29T05:58:51;26.90;92.10
3727;DHT22;1879;45.876;12.300;2022-07-29T06:01:18;27.00;92.20
3727;DHT22;1879;45.876;12.300;2022-07-29T06:03:45;27.10;92.00
3727;DHT22;1879;45.876;12.300;2022-07-29T06:06:12;27.10;92.00
3727;DHT22;1879;45.876;12.300;2022-07-29T06:08:39;27.10;92.20
3727;DHT22;1879;45.876;12.300;2022-07-29T06:11:08;27.30;92.00
3727;DHT22;1879;45.876;12.300;2022-07-29T06:13:35;27.40;91.70
3727;DHT22;1879;45.876;12.300;2022-07-29T06:16:02;27.40;91.40
3727;DHT22;1879;45.876;12.300;2022-07-29T06:18:29;27.40;91.50
3727;DHT22;1879;45.876;12.300;2022-07-29T06:20:56;27.50;91.70
3727;DHT22;1879;45.876;12.300;2022-07-29T06:23:23;27.50;91.40
3727;DHT22;1879;45.876;12.300;2022-07-29T06:25:50;27.50;91.30
3727;DHT22;1879;45.876;12.300;2022-07-29T06:28:19;27.50;91.40
3727;DHT22;1879;45.876;12.300;2022-07-29T06:30:46;27.60;91.10
3727;DHT22;1879;45.876;12.300;2022-07-29T06:33:16;27.60;91.00
3727;DHT22;1879;45.876;12.300;2022-07-29T06:35:44;27.70;91.00
3727;DHT22;1879;45.876;12.300;2022-07-29T06:38:12;27.70;90.80
3727;DHT22;1879;45.876;12.300;2022-07-29T06:40:41;27.80;90.90
3727;DHT22;1879;45.876;12.300;2022-07-29T06:43:30;27.80;90.70
3727;DHT22;1879;45.876;12.300;2022-07-29T06:46:00;27.90;90.70
3727;DHT22;1879;45.876;12.300;2022-07-29T06:48:28;28.00;90.60
3727;DHT22;1879;45.876;12.300;2022-07-29T06:50:55;28.10;90.20
3727;DHT22;1879;45.876;12.300;2022-07-29T06:53:22;28.10;90.10
3727;DHT22;1879;45.876;12.300;2022-07-29T06:55:49;28.20;90.20
3727;DHT22;1879;45.876;12.300;2022-07-29T06:58:16;28.30;89.60
3727;DHT22;1879;45.876;12.300;2022-07-29T07:00:47;28.30;88.90
3727;DHT22;1879;45.876;12.300;2022-07-29T07:03:14;28.40;88.50
3727;DHT22;1879;45.876;12.300;2022-07-29T07:05:42;28.40;88.40
3727;DHT22;1879;45.876;12.300;2022-07-29T07:08:09;28.50;88.40
3727;DHT22;1879;45.876;12.300;2022-07-29T07:10:36;28.50;87.70
3727;DHT22;1879;45.876;12.300;2022-07-29T07:13:04;28.60;86.80
3727;DHT22;1879;45.876;12.300;2022-07-29T07:15:32;28.60;86.50
3727;DHT22;1879;45.876;12.300;2022-07-29T07:18:00;28.70;86.90
3727;DHT22;1879;45.876;12.300;2022-07-29T07:20:27;28.70;86.00
3727;DHT22;1879;45.876;12.300;2022-07-29T07:22:54;28.80;85.00
3727;DHT22;1879;45.876;12.300;2022-07-29T07:25:21;28.80;83.90
3727;DHT22;1879;45.876;12.300;2022-07-29T07:27:48;28.90;83.90
3727;DHT22;1879;45.876;12.300;2022-07-29T07:30:16;29.00;83.40
3727;DHT22;1879;45.876;12.300;2022-07-29T07:32:43;29.00;82.70
3727;DHT22;1879;45.876;12.300;2022-07-29T07:35:11;29.00;83.00
3727;DHT22;1879;45.876;12.300;2022-07-29T07:37:39;29.10;83.00
3727;DHT22;1879;45.876;12.300;2022-07-29T07:40:08;29.20;82.60
3727;DHT22;1879;45.876;12.300;2022-07-29T07:42:37;29.20;82.10
3727;DHT22;1879;45.876;12.300;2022-07-29T07:45:05;29.30;81.00
3727;DHT22;1879;45.876;12.300;2022-07-29T07:47:32;29.30;80.90
3727;DHT22;1879;45.876;12.300;2022-07-29T07:49:59;29.30;81.60
3727;DHT22;1879;45.876;12.300;2022-07-29T07:52:28;29.30;81.10
3727;DHT22;1879;45.876;12.300;2022-07-29T07:54:55;29.40;80.80
3727;DHT22;1879;45.876;12.300;2022-07-29T07:57:22;29.40;80.70
3727;DHT22;1879;45.876;12.300;2022-07-29T07:59:49;29.40;80.40
3727;DHT22;1879;45.876;12.300;2022-07-29T08:02:16;29.50;81.20
3727;DHT22;1879;45.876;12.300;2022-07-29T08:04:43;29.60;80.20
3727;DHT22;1879;45.876;12.300;2022-07-29T08:07:10;29.70;79.50
3727;DHT22;1879;45.876;12.300;2022-07-29T08:09:38;29.70;79.10
3727;DHT22;1879;45.876;12.300;2022-07-29T08:12:06;29.50;78.10
3727;DHT22;1879;45.876;12.300;2022-07-29T08:14:33;29.50;78.60
3727;DHT22;1879;45.876;12.300;2022-07-29T08:17:00;29.50;78.00
3727;DHT22;1879;45.876;12.300;2022-07-29T08:19:27;29.50;78.60
3727;DHT22;1879;45.876;12.300;2022-07-29T08:21:54;29.60;78.70
3727;DHT22;1879;45.876;12.300;2022-07-29T08:24:21;29.80;78.20
3727;DHT22;1879;45.876;12.300;2022-07-29T08:27:07;30.00;78.50
3727;DHT22;1879;45.876;12.300;2022-07-29T08:29:34;30.10;77.00
3727;DHT22;1879;45.876;12.300;2022-07-29T08:32:01;30.10;75.80
3727;DHT22;1879;45.876;12.300;2022-07-29T08:34:28;30.10;75.70
3727;DHT22;1879;45.876;12.300;2022-07-29T08:36:55;30.10;74.90
3727;DHT22;1879;45.876;12.300;2022-07-29T08:39:23;30.10;75.60
3727;DHT22;1879;45.876;12.300;2022-07-29T08:41:50;30.20;75.30
3727;DHT22;1879;45.876;12.300;2022-07-29T08:44:18;30.20;74.80
3727;DHT22;1879;45.876;12.300;2022-07-29T08:46:47;30.20;74.40
3727;DHT22;1879;45.876;12.300;2022-07-29T08:49:15;30.30;74.60
3727;DHT22;1879;45.876;12.300;2022-07-29T08:51:43;30.30;74.20
3727;DHT22;1879;45.876;12.300;2022-07-29T08:54:10;30.40;73.90
3727;DHT22;1879;45.876;12.300;2022-07-29T08:56:38;30.30;74.00
3727;DHT22;1879;45.876;12.300;2022-07-29T08:59:07;30.40;73.90
3727;DHT22;1879;45.876;12.300;2022-07-29T09:01:37;30.50;73.80
3727;DHT22;1879;45.876;12.300;2022-07-29T09:04:10;30.50;73.90
3727;DHT22;1879;45.876;12.300;2022-07-29T09:06:42;30.60;73.60
3727;DHT22;1879;45.876;12.300;2022-07-29T09:09:09;30.60;72.40
3727;DHT22;1879;45.876;12.300;2022-07-29T09:11:37;30.70;73.20
3727;DHT22;1879;45.876;12.300;2022-07-29T09:14:04;30.70;72.70
3727;DHT22;1879;45.876;12.300;2022-07-29T09:16:52;30.80;73.00
3727;DHT22;1879;45.876;12.300;2022-07-29T09:19:30;30.90;72.90
3727;DHT22;1879;45.876;12.300;2022-07-29T09:21:59;31.10;72.20
3727;DHT22;1879;45.876;12.300;2022-07-29T09:24:41;31.20;72.20
3727;DHT22;1879;45.876;12.300;2022-07-29T09:27:12;31.40;71.00
3727;DHT22;1879;45.876;12.300;2022-07-29T09:29:44;31.50;71.30
3727;DHT22;1879;45.876;12.300;2022-07-29T09:32:13;31.70;70.50
3727;DHT22;1879;45.876;12.300;2022-07-29T09:34:40;31.80;70.40
3727;DHT22;1879;45.876;12.300;2022-07-29T09:37:07;32.10;70.20
3727;DHT22;1879;45.876;12.300;2022-07-29T09:39:36;32.10;68.40
3727;DHT22;1879;45.876;12.300;2022-07-29T09:42:05;32.10;68.00
3727;DHT22;1879;45.876;12.300;2022-07-29T09:44:43;32.20;68.40
3727;DHT22;1879;45.876;12.300;2022-07-29T09:47:12;32.10;67.70
3727;DHT22;1879;45.876;12.300;2022-07-29T09:49:53;32.20;67.60
3727;DHT22;1879;45.876;12.300;2022-07-29T09:52:20;32.20;67.10
3727;DHT22;1879;45.876;12.300;2022-07-29T09:54:47;32.20;67.10
3727;DHT22;1879;45.876;12.300;2022-07-29T09:57:23;32.20;67.30
3727;DHT22;1879;45.876;12.300;2022-07-29T09:59:56;32.20;66.30
3727;DHT22;1879;45.876;12.300;2022-07-29T10:02:29;32.00;66.40
3727;DHT22;1879;45.876;12.300;2022-07-29T10:04:58;31.80;67.40
3727;DHT22;1879;45.876;12.300;2022-07-29T10:07:25;31.80;67.40
3727;DHT22;1879;45.876;12.300;2022-07-29T10:09:54;31.90;68.20
3727;DHT22;1879;45.876;12.300;2022-07-29T10:12:22;32.10;67.60
3727;DHT22;1879;45.876;12.300;2022-07-29T10:14:50;32.20;67.30
3727;DHT22;1879;45.876;12.300;2022-07-29T10:17:17;32.40;66.90
3727;DHT22;1879;45.876;12.300;2022-07-29T10:19:47;32.60;67.10
3727;DHT22;1879;45.876;12.300;2022-07-29T10:22:15;32.70;66.50
3727;DHT22;1879;45.876;12.300;2022-07-29T10:24:42;32.70;66.70
3727;DHT22;1879;45.876;12.300;2022-07-29T10:27:10;32.70;66.60
3727;DHT22;1879;45.876;12.300;2022-07-29T10:29:38;32.70;65.20
3727;DHT22;1879;45.876;12.300;2022-07-29T10:32:16;32.40;64.00
3727;DHT22;1879;45.876;12.300;2022-07-29T10:35:01;32.40;65.00
3727;DHT22;1879;45.876;12.300;2022-07-29T10:37:41;32.30;65.00
3727;DHT22;1879;45.876;12.300;2022-07-29T10:40:22;32.40;65.20
3727;DHT22;1879;45.876;12.300;2022-07-29T10:43:18;32.60;63.70
3727;DHT22;1879;45.876;12.300;2022-07-29T10:45:47;32.70;63.90
3727;DHT22;1879;45.876;12.300;2022-07-29T10:48:14;32.70;64.80
3727;DHT22;1879;45.876;12.300;2022-07-29T10:50:54;32.70;64.80
3727;DHT22;1879;45.876;12.300;2022-07-29T10:53:22;32.90;65.20
3727;DHT22;1879;45.876;12.300;2022-07-29T10:55:50;32.90;63.40
3727;DHT22;1879;45.876;12.300;2022-07-29T10:58:19;33.10;64.00
3727;DHT22;1879;45.876;12.300;2022-07-29T11:00:47;33.10;63.80
3727;DHT22;1879;45.876;12.300;2022-07-29T11:03:47;33.20;62.90
3727;DHT22;1879;45.876;12.300;2022-07-29T11:06:18;33.10;62.40
3727;DHT22;1879;45.876;12.300;2022-07-29T11:09:15;33.20;63.20
3727;DHT22;1879;45.876;12.300;2022-07-29T11:11:42;33.40;62.30
3727;DHT22;1879;45.876;12.300;2022-07-29T11:14:09;33.40;61.70
3727;DHT22;1879;45.876;12.300;2022-07-29T11:16:58;33.60;63.00
3727;DHT22;1879;45.876;12.300;2022-07-29T11:19:25;33.70;61.10
3727;DHT22;1879;45.876;12.300;2022-07-29T11:21:54;33.70;62.10
3727;DHT22;1879;45.876;12.300;2022-07-29T11:24:22;33.70;61.70
3727;DHT22;1879;45.876;12.300;2022-07-29T11:27:23;34.00;61.90
3727;DHT22;1879;45.876;12.300;2022-07-29T11:29:58;34.30;61.40
3727;DHT22;1879;45.876;12.300;2022-07-29T11:32:36;34.70;61.10
3727;DHT22;1879;45.876;12.300;2022-07-29T11:35:14;34.90;58.90
3727;DHT22;1879;45.876;12.300;2022-07-29T11:37:44;35.10;58.70
3727;DHT22;1879;45.876;12.300;2022-07-29T11:40:16;35.20;58.40
3727;DHT22;1879;45.876;12.300;2022-07-29T11:42:46;35.30;58.10
3727;DHT22;1879;45.876;12.300;2022-07-29T11:45:26;35.20;57.40
3727;DHT22;1879;45.876;12.300;2022-07-29T11:47:59;34.60;56.20
3727;DHT22;1879;45.876;12.300;2022-07-29T11:50:29;35.00;57.00
3727;DHT22;1879;45.876;12.300;2022-07-29T11:52:58;35.00;56.70
3727;DHT22;1879;45.876;12.300;2022-07-29T11:55:26;35.30;57.40
3727;DHT22;1879;45.876;12.300;2022-07-29T11:57:54;35.20;56.20
3727;DHT22;1879;45.876;12.300;2022-07-29T12:00:25;34.80;55.60
3727;DHT22;1879;45.876;12.300;2022-07-29T12:02:53;34.60;54.80
3727;DHT22;1879;45.876;12.300;2022-07-29T12:05:21;35.00;55.30
3727;DHT22;1879;45.876;12.300;2022-07-29T12:07:48;35.60;55.50
3727;DHT22;1879;45.876;12.300;2022-07-29T12:10:16;35.80;54.10
3727;DHT22;1879;45.876;12.300;2022-07-29T12:12:51;36.20;53.50
3727;DHT22;1879;45.876;12.300;2022-07-29T12:15:19;36.40;53.60
3727;DHT22;1879;45.876;12.300;2022-07-29T12:17:47;36.90;53.80
3727;DHT22;1879;45.876;12.300;2022-07-29T12:20:22;36.60;52.50
3727;DHT22;1879;45.876;12.300;2022-07-29T12:22:49;36.50;52.70
3727;DHT22;1879;45.876;12.300;2022-07-29T12:25:21;35.90;52.30
3727;DHT22;1879;45.876;12.300;2022-07-29T12:27:58;36.00;52.60
3727;DHT22;1879;45.876;12.300;2022-07-29T12:30:35;36.00;52.50
3727;DHT22;1879;45.876;12.300;2022-07-29T12:33:15;36.40;52.40
3727;DHT22;1879;45.876;12.300;2022-07-29T12:35:45;37.10;52.80
3727;DHT22;1879;45.876;12.300;2022-07-29T12:38:12;37.60;52.10
3727;DHT22;1879;45.876;12.300;2022-07-29T12:40:42;38.00;51.70
3727;DHT22;1879;45.876;12.300;2022-07-29T12:43:11;38.40;51.00
3727;DHT22;1879;45.876;12.300;2022-07-29T12:45:41;38.20;50.80
3727;DHT22;1879;45.876;12.300;2022-07-29T12:48:08;38.30;50.70
3727;DHT22;1879;45.876;12.300;2022-07-29T12:50:36;38.40;50.60
3727;DHT22;1879;45.876;12.300;2022-07-29T12:53:11;38.60;51.00
3727;DHT22;1879;45.876;12.300;2022-07-29T12:55:42;39.10;50.30
3727;DHT22;1879;45.876;12.300;2022-07-29T12:58:09;38.90;49.30
3727;DHT22;1879;45.876;12.300;2022-07-29T13:00:37;38.80;49.20
3727;DHT22;1879;45.876;12.300;2022-07-29T13:03:04;38.30;48.70
3727;DHT22;1879;45.876;12.300;2022-07-29T13:05:41;37.70;48.10
3727;DHT22;1879;45.876;12.300;2022-07-29T13:08:13;37.70;49.10
3727;DHT22;1879;45.876;12.300;2022-07-29T13:10:42;37.80;49.00
3727;DHT22;1879;45.876;12.300;2022-07-29T13:13:10;38.10;49.10
3727;DHT22;1879;45.876;12.300;2022-07-29T13:15:39;38.10;48.70
3727;DHT22;1879;45.876;12.300;2022-07-29T13:18:26;37.90;49.00
3727;DHT22;1879;45.876;12.300;2022-07-29T13:20:54;37.90;48.80
3727;DHT22;1879;45.876;12.300;2022-07-29T13:23:21;38.20;48.90
3727;DHT22;1879;45.876;12.300;2022-07-29T13:25:50;38.00;48.30
3727;DHT22;1879;45.876;12.300;2022-07-29T13:28:17;37.50;48.50
3727;DHT22;1879;45.876;12.300;2022-07-29T13:30:44;37.10;49.40
3727;DHT22;1879;45.876;12.300;2022-07-29T13:33:11;37.20;49.30
3727;DHT22;1879;45.876;12.300;2022-07-29T13:35:38;37.60;49.30
3727;DHT22;1879;45.876;12.300;2022-07-29T13:38:05;37.60;48.20
3727;DHT22;1879;45.876;12.300;2022-07-29T13:40:32;37.50;48.70
3727;DHT22;1879;45.876;12.300;2022-07-29T13:43:02;37.60;48.60
3727;DHT22;1879;45.876;12.300;2022-07-29T13:45:29;37.70;48.20
3727;DHT22;1879;45.876;12.300;2022-07-29T13:47:56;37.60;47.60
3727;DHT22;1879;45.876;12.300;2022-07-29T13:50:23;37.60;48.00
3727;DHT22;1879;45.876;12.300;2022-07-29T13:52:50;37.40;47.50
3727;DHT22;1879;45.876;12.300;2022-07-29T13:55:17;37.60;47.90
3727;DHT22;1879;45.876;12.300;2022-07-29T13:57:44;37.70;47.70
3727;DHT22;1879;45.876;12.300;2022-07-29T14:00:13;37.90;47.30
3727;DHT22;1879;45.876;12.300;2022-07-29T14:02:40;38.20;47.70
3727;DHT22;1879;45.876;12.300;2022-07-29T14:05:08;38.50;47.20
3727;DHT22;1879;45.876;12.300;2022-07-29T14:07:36;38.90;47.00
3727;DHT22;1879;45.876;12.300;2022-07-29T14:10:05;39.00;46.20
3727;DHT22;1879;45.876;12.300;2022-07-29T14:12:32;38.80;45.80
3727;DHT22;1879;45.876;12.300;2022-07-29T14:14:59;38.90;45.80
3727;DHT22;1879;45.876;12.300;2022-07-29T14:17:27;38.80;45.40
3727;DHT22;1879;45.876;12.300;2022-07-29T14:19:54;38.80;46.00
3727;DHT22;1879;45.876;12.300;2022-07-29T14:22:21;38.60;45.50
3727;DHT22;1879;45.876;12.300;2022-07-29T14:24:49;37.50;44.70
3727;DHT22;1879;45.876;12.300;2022-07-29T14:27:16;37.90;46.00
3727;DHT22;1879;45.876;12.300;2022-07-29T14:29:43;37.90;45.40
3727;DHT22;1879;45.876;12.300;2022-07-29T14:32:10;38.40;46.10
3727;DHT22;1879;45.876;12.300;2022-07-29T14:34:41;38.70;45.70
3727;DHT22;1879;45.876;12.300;2022-07-29T14:37:08;39.10;45.70
3727;DHT22;1879;45.876;12.300;2022-07-29T14:39:35;39.50;45.70
3727;DHT22;1879;45.876;12.300;2022-07-29T14:42:03;39.60;45.60
3727;DHT22;1879;45.876;12.300;2022-07-29T14:44:30;39.50;45.20
3727;DHT22;1879;45.876;12.300;2022-07-29T14:46:57;38.90;44.60
3727;DHT22;1879;45.876;12.300;2022-07-29T14:49:25;38.10;44.70
3727;DHT22;1879;45.876;12.300;2022-07-29T14:51:54;37.60;45.00
3727;DHT22;1879;45.876;12.300;2022-07-29T14:54:21;37.40;45.90
3727;DHT22;1879;45.876;12.300;2022-07-29T14:56:48;37.20;46.10
3727;DHT22;1879;45.876;12.300;2022-07-29T14:59:16;37.10;46.60
3727;DHT22;1879;45.876;12.300;2022-07-29T15:01:44;36.60;46.80
3727;DHT22;1879;45.876;12.300;2022-07-29T15:04:11;36.00;47.10
3727;DHT22;1879;45.876;12.300;2022-07-29T15:06:38;35.60;47.70
3727;DHT22;1879;45.876;12.300;2022-07-29T15:09:06;35.40;48.00
3727;DHT22;1879;45.876;12.300;2022-07-29T15:11:33;35.50;48.00
3727;DHT22;1879;45.876;12.300;2022-07-29T15:14:00;36.00;48.10
3727;DHT22;1879;45.876;12.300;2022-07-29T15:16:27;36.40;47.90
3727;DHT22;1879;45.876;12.300;2022-07-29T15:18:54;36.40;47.30
3727;DHT22;1879;45.876;12.300;2022-07-29T15:21:23;36.30;47.50
3727;DHT22;1879;45.876;12.300;2022-07-29T15:23:50;36.30;47.80
3727;DHT22;1879;45.876;12.300;2022-07-29T15:26:18;36.40;48.20
3727;DHT22;1879;45.876;12.300;2022-07-29T15:28:45;36.50;47.90
3727;DHT22;1879;45.876;12.300;2022-07-29T15:31:12;36.50;47.60
3727;DHT22;1879;45.876;12.300;2022-07-29T15:33:44;36.50;47.70
3727;DHT22;1879;45.876;12.300;2022-07-29T15:36:11;36.30;47.30
3727;DHT22;1879;45.876;12.300;2022-07-29T15:38:38;35.90;47.90
3727;DHT22;1879;45.876;12.300;2022-07-29T15:41:06;35.70;48.10
3727;DHT22;1879;45.876;12.300;2022-07-29T15:43:35;35.70;48.10
3727;DHT22;1879;45.876;12.300;2022-07-29T15:46:02;35.80;48.10
3727;DHT22;1879;45.876;12.300;2022-07-29T15:48:46;36.00;48.70
3727;DHT22;1879;45.876;12.300;2022-07-29T15:51:13;36.10;49.00
3727;DHT22;1879;45.876;12.300;2022-07-29T15:53:40;35.90;51.40
3727;DHT22;1879;45.876;12.300;2022-07-29T15:56:07;35.80;52.40
3727;DHT22;1879;45.876;12.300;2022-07-29T15:58:35;35.70;53.70